sensor_id;sensor_type;location;lat;lon;timestamp;temperature;humidity
35796;DHT22;21916;52.428;13.302;2023-04-25T00:01:41;8.50;99.90
35796;DHT22;21916;52.428;13.302;2023-04-25T00:04:07;8.50;99.90
35796;DHT22;21916;52.428;13.302;2023-04-25T00:06:36;8.50;99.90
35796;DHT22;21916;52.428;13.302;2023-04-25T00:09:03;8.50;99.90
35796;DHT22;21916;52.428;13.302;2023-04-25T00:11:29;8.50;99.90
35796;DHT22;21916;52.428;13.302;2023-04-25T00:13:56;8.50;99.90
35796;DHT22;21916;52.428;13.302;2023-04-25T00:16:23;8.40;99.90
35796;DHT22;21916;52.428;13.302;2023-04-25T00:18:49;8.40;99.90
35796;DHT22;21916;52.428;13.302;2023-04-25T00:21:19;8.40;99.90
35796;DHT22;21916;52.428;13.302;2023-04-25T00:23:46;8.40;99.90
35796;DHT22;21916;52.428;13.302;2023-04-25T00:26:12;8.40;99.90
35796;DHT22;21916;52.428;13.302;2023-04-25T00:28:41;8.40;99.90
35796;DHT22;21916;52.428;13.302;2023-04-25T00:31:07;8.50;99.90
35796;DHT22;21916;52.428;13.302;2023-04-25T00:33:33;8.50;99.90
35796;DHT22;21916;52.428;13.302;2023-04-25T00:36:00;8.60;99.90
35796;DHT22;21916;52.428;13.302;2023-04-25T00:38:26;8.60;99.90
35796;DHT22;21916;52.428;13.302;2023-04-25T00:40:52;8.60;99.90
35796;DHT22;21916;52.428;13.302;2023-04-25T00:43:19;8.60;99.90
35796;DHT22;21916;52.428;13.302;2023-04-25T00:45:47;8.60;99.90
35796;DHT22;21916;52.428;13.302;2023-04-25T00:48:14;8.60;99.90
35796;DHT22;21916;52.428;13.302;2023-04-25T00:50:41;8.60;99.90
35796;DHT22;21916;52.428;13.302;2023-04-25T00:53:10;8.70;99.90
35796;DHT22;21916;52.428;13.302;2023-04-25T00:55:36;8.60;99.90
35796;DHT22;21916;52.428;13.302;2023-04-25T00:58:02;8.70;99.90
35796;DHT22;21916;52.428;13.302;2023-04-25T01:00:29;8.70;99.90
35796;DHT22;21916;52.428;13.302;2023-04-25T01:02:55;8.60;99.90
35796;DHT22;21916;52.428;13.302;2023-04-25T01:05:21;8.60;99.90
35796;DHT22;21916;52.428;13.302;2023-04-25T01:07:48;8.60;99.90
35796;DHT22;21916;52.428;13.302;2023-04-25T01:10:14;8.60;99.90
35796;DHT22;21916;52.428;13.302;2023-04-25T01:12:41;8.60;99.90
35796;DHT22;21916;52.428;13.302;2023-04-25T01:15:07;8.60;99.90
35796;DHT22;21916;52.428;13.302;2023-04-25T01:17:34;8.60;99.90
35796;DHT22;21916;52.428;13.302;2023-04-25T01:20:05;8.60;99.90
35796;DHT22;21916;52.428;13.302;2023-04-25T01:22:33;8.60;99.90
35796;DHT22;21916;52.428;13.302;2023-04-25T01:25:00;8.60;99.90
35796;DHT22;21916;52.428;13.302;2023-04-25T01:27:27;8.60;99.90
35796;DHT22;21916;52.428;13.302;2023-04-25T01:29:55;8.50;99.90
35796;DHT22;21916;52.428;13.302;2023-04-25T01:32:22;8.50;99.90
35796;DHT22;21916;52.428;13.302;2023-04-25T01:34:49;8.50;99.90
35796;DHT22;21916;52.428;13.302;2023-04-25T01:37:16;8.50;99.90
35796;DHT22;21916;52.428;13.302;2023-04-25T01:39:44;8.50;99.90
35796;DHT22;21916;52.428;13.302;2023-04-25T01:42:10;8.50;99.90
35796;DHT22;21916;52.428;13.302;2023-04-25T01:44:36;8.50;99.90
35796;DHT22;21916;52.428;13.302;2023-04-25T01:47:02;8.50;99.90
35796;DHT22;21916;52.428;13.302;2023-04-25T01:49:28;8.50;99.90
35796;DHT22;21916;52.428;13.302;2023-04-25T01:51:54;8.50;99.90
35796;DHT22;21916;52.428;13.302;2023-04-25T01:54:21;8.50;99.90
35796;DHT22;21916;52.428;13.302;2023-04-25T01:56:51;8.50;99.90
35796;DHT22;21916;52.428;13.302;2023-04-25T01:59:18;8.50;99.90
35796;DHT22;21916;52.428;13.302;2023-04-25T02:01:48;8.50;99.90
35796;DHT22;21916;52.428;13.302;2023-04-25T02:04:22;8.50;99.90
35796;DHT22;21916;52.428;13.302;2023-04-25T02:06:48;8.50;99.90
35796;DHT22;21916;52.428;13.302;2023-04-25T02:09:15;8.50;99.90
35796;DHT22;21916;52.428;13.302;2023-04-25T02:11:45;8.50;99.90
35796;DHT22;21916;52.428;13.302;2023-04-25T02:14:34;8.60;99.90
35796;DHT22;21916;52.428;13.302;2023-04-25T02:17:09;8.60;99.90
35796;DHT22;21916;52.428;13.302;2023-04-25T02:19:35;8.50;99.90
35796;DHT22;21916;52.428;13.302;2023-04-25T02:22:01;8.50;99.90
35796;DHT22;21916;52.428;13.302;2023-04-25T02:24:27;8.50;99.90
35796;DHT22;21916;52.428;13.302;2023-04-25T02:26:55;8.50;99.90
35796;DHT22;21916;52.428;13.302;2023-04-25T02:29:22;8.50;99.90
35796;DHT22;21916;52.428;13.302;2023-04-25T02:31:48;8.40;99.90
35796;DHT22;21916;52.428;13.302;2023-04-25T02:34:16;8.40;99.90
35796;DHT22;21916;52.428;13.302;2023-04-25T02:36:42;8.40;99.90
35796;DHT22;21916;52.428;13.302;2023-04-25T02:39:08;8.40;99.90
35796;DHT22;21916;52.428;13.302;2023-04-25T02:41:34;8.40;99.90
35796;DHT22;21916;52.428;13.302;2023-04-25T02:44:00;8.40;99.90
35796;DHT22;21916;52.428;13.302;2023-04-25T02:46:26;8.40;99.90
35796;DHT22;21916;52.428;13.302;2023-04-25T02:48:52;8.40;99.90
35796;DHT22;21916;52.428;13.302;2023-04-25T02:51:18;8.30;99.90
35796;DHT22;21916;52.428;13.302;2023-04-25T02:53:44;8.30;99.90
35796;DHT22;21916;52.428;13.302;2023-04-25T02:56:10;8.40;99.90
35796;DHT22;21916;52.428;13.302;2023-04-25T02:58:36;8.30;99.90
35796;DHT22;21916;52.428;13.302;2023-04-25T03:01:02;8.30;99.90
35796;DHT22;21916;52.428;13.302;2023-04-25T03:03:28;8.30;99.90
35796;DHT22;21916;52.428;13.302;2023-04-25T03:05:54;8.30;99.90
35796;DHT22;21916;52.428;13.302;2023-04-25T03:08:25;8.30;99.90
35796;DHT22;21916;52.428;13.302;2023-04-25T03:10:55;8.30;99.90
35796;DHT22;21916;52.428;13.302;2023-04-25T03:13:21;8.30;99.90
35796;DHT22;21916;52.428;13.302;2023-04-25T03:15:47;8.30;99.90
35796;DHT22;21916;52.428;13.302;2023-04-25T03:18:13;8.30;99.90
35796;DHT22;21916;52.428;13.302;2023-04-25T03:20:39;8.30;99.90
35796;DHT22;21916;52.428;13.302;2023-04-25T03:23:08;8.30;99.90
35796;DHT22;21916;52.428;13.302;2023-04-25T03:25:35;8.30;99.90
35796;DHT22;21916;52.428;13.302;2023-04-25T03:28:01;8.20;99.90
35796;DHT22;21916;52.428;13.302;2023-04-25T03:30:27;8.30;99.90
35796;DHT22;21916;52.428;13.302;2023-04-25T03:32:53;8.30;99.90
35796;DHT22;21916;52.428;13.302;2023-04-25T03:35:19;8.30;99.90
35796;DHT22;21916;52.428;13.302;2023-04-25T03:37:45;8.30;99.90
35796;DHT22;21916;52.428;13.302;2023-04-25T03:40:15;8.20;99.90
35796;DHT22;21916;52.428;13.302;2023-04-25T03:43:06;8.20;99.90
35796;DHT22;21916;52.428;13.302;2023-04-25T03:45:39;8.20;99.90
35796;DHT22;21916;52.428;13.302;2023-04-25T03:48:05;8.20;99.90
35796;DHT22;21916;52.428;13.302;2023-04-25T03:50:31;8.20;99.90
35796;DHT22;21916;52.428;13.302;2023-04-25T03:52:57;8.20;99.90
35796;DHT22;21916;52.428;13.302;2023-04-25T03:55:26;8.20;99.90
35796;DHT22;21916;52.428;13.302;2023-04-25T03:57:52;8.20;99.90
35796;DHT22;21916;52.428;13.302;2023-04-25T04:00:18;8.20;99.90
35796;DHT22;21916;52.428;13.302;2023-04-25T04:02:44;8.10;99.90
35796;DHT22;21916;52.428;13.302;2023-04-25T04:05:11;8.10;99.90
35796;DHT22;21916;52.428;13.302;2023-04-25T04:07:42;8.10;99.90
35796;DHT22;21916;52.428;13.302;2023-04-25T04:10:10;8.10;99.90
35796;DHT22;21916;52.428;13.302;2023-04-25T04:12:40;8.10;99.90
35796;DHT22;21916;52.428;13.302;2023-04-25T04:15:06;8.00;99.90
35796;DHT22;21916;52.428;13.302;2023-04-25T04:17:34;8.10;99.90
35796;DHT22;21916;52.428;13.302;2023-04-25T04:20:00;8.00;99.90
35796;DHT22;21916;52.428;13.302;2023-04-25T04:22:30;8.10;99.90
35796;DHT22;21916;52.428;13.302;2023-04-25T04:25:02;8.10;99.90
35796;DHT22;21916;52.428;13.302;2023-04-25T04:27:46;8.10;99.90
35796;DHT22;21916;52.428;13.302;2023-04-25T04:30:25;8.10;99.90
35796;DHT22;21916;52.428;13.302;2023-04-25T04:32:57;8.10;99.90
35796;DHT22;21916;52.428;13.302;2023-04-25T04:35:24;8.10;99.90
35796;DHT22;21916;52.428;13.302;2023-04-25T04:37:58;8.20;99.90
35796;DHT22;21916;52.428;13.302;2023-04-25T04:40:27;8.20;99.90
35796;DHT22;21916;52.428;13.302;2023-04-25T04:43:02;8.20;99.90
35796;DHT22;21916;52.428;13.302;2023-04-25T04:45:28;8.20;99.90
35796;DHT22;21916;52.428;13.302;2023-04-25T04:48:07;8.30;99.90
35796;DHT22;21916;52.428;13.302;2023-04-25T04:50:52;8.30;99.90
35796;DHT22;21916;52.428;13.302;2023-04-25T04:53:38;8.30;99.90
35796;DHT22;21916;52.428;13.302;2023-04-25T04:56:19;8.30;99.90
35796;DHT22;21916;52.428;13.302;2023-04-25T04:58:48;8.40;99.90
35796;DHT22;21916;52.428;13.302;2023-04-25T05:01:38;8.40;99.90
35796;DHT22;21916;52.428;13.302;2023-04-25T05:04:18;8.40;99.90
35796;DHT22;21916;52.428;13.302;2023-04-25T05:07:00;8.40;99.90
35796;DHT22;21916;52.428;13.302;2023-04-25T05:09:47;8.40;99.90
35796;DHT22;21916;52.428;13.302;2023-04-25T05:12:36;8.40;99.90
35796;DHT22;21916;52.428;13.302;2023-04-25T05:15:17;8.40;99.90
35796;DHT22;21916;52.428;13.302;2023-04-25T05:17:52;8.40;99.90
35796;DHT22;21916;52.428;13.302;2023-04-25T05:20:41;8.40;99.90
35796;DHT22;21916;52.428;13.302;2023-04-25T05:23:20;8.40;99.90
35796;DHT22;21916;52.428;13.302;2023-04-25T05:26:02;8.40;99.90
35796;DHT22;21916;52.428;13.302;2023-04-25T05:28:34;8.40;99.90
35796;DHT22;21916;52.428;13.302;2023-04-25T05:31:29;8.40;99.90
35796;DHT22;21916;52.428;13.302;2023-04-25T05:34:02;8.30;99.90
35796;DHT22;21916;52.428;13.302;2023-04-25T05:36:39;8.40;99.90
35796;DHT22;21916;52.428;13.302;2023-04-25T05:39:05;8.30;99.90
35796;DHT22;21916;52.428;13.302;2023-04-25T05:42:04;8.40;99.90
35796;DHT22;21916;52.428;13.302;2023-04-25T05:44:56;8.50;99.90
35796;DHT22;21916;52.428;13.302;2023-04-25T05:47:29;8.40;99.90
35796;DHT22;21916;52.428;13.302;2023-04-25T05:50:24;8.40;99.90
35796;DHT22;21916;52.428;13.302;2023-04-25T05:52:57;8.50;99.90
35796;DHT22;21916;52.428;13.302;2023-04-25T05:55:27;8.50;99.90
35796;DHT22;21916;52.428;13.302;2023-04-25T05:57:54;8.50;99.90
35796;DHT22;21916;52.428;13.302;2023-04-25T06:00:22;8.50;99.90
35796;DHT22;21916;52.428;13.302;2023-04-25T06:02:49;8.60;99.90
35796;DHT22;21916;52.428;13.302;2023-04-25T06:05:15;8.60;99.90
35796;DHT22;21916;52.428;13.302;2023-04-25T06:07:41;8.50;99.90
35796;DHT22;21916;52.428;13.302;2023-04-25T06:10:07;8.60;99.90
35796;DHT22;21916;52.428;13.302;2023-04-25T06:12:33;8.70;99.90
35796;DHT22;21916;52.428;13.302;2023-04-25T06:15:00;8.70;99.90
35796;DHT22;21916;52.428;13.302;2023-04-25T06:17:26;8.70;99.90
35796;DHT22;21916;52.428;13.302;2023-04-25T06:19:52;8.70;99.90
35796;DHT22;21916;52.428;13.302;2023-04-25T06:22:19;8.80;99.90
35796;DHT22;21916;52.428;13.302;2023-04-25T06:24:44;8.70;99.90
35796;DHT22;21916;52.428;13.302;2023-04-25T06:27:11;8.60;99.90
35796;DHT22;21916;52.428;13.302;2023-04-25T06:29:38;8.70;99.90
35796;DHT22;21916;52.428;13.302;2023-04-25T06:32:04;8.80;99.90
35796;DHT22;21916;52.428;13.302;2023-04-25T06:34:31;8.80;99.90
35796;DHT22;21916;52.428;13.302;2023-04-25T06:36:57;8.80;99.90
35796;DHT22;21916;52.428;13.302;2023-04-25T06:39:23;8.70;99.90
35796;DHT22;21916;52.428;13.302;2023-04-25T06:41:50;8.70;99.90
35796;DHT22;21916;52.428;13.302;2023-04-25T06:44:35;8.70;99.90
35796;DHT22;21916;52.428;13.302;2023-04-25T06:47:02;8.70;99.90
35796;DHT22;21916;52.428;13.302;2023-04-25T06:49:29;8.70;99.90
35796;DHT22;21916;52.428;13.302;2023-04-25T06:51:57;8.70;99.90
35796;DHT22;21916;52.428;13.302;2023-04-25T06:54:23;8.80;99.90
35796;DHT22;21916;52.428;13.302;2023-04-25T06:57:05;8.70;99.90
35796;DHT22;21916;52.428;13.302;2023-04-25T06:59:33;8.70;99.90
35796;DHT22;21916;52.428;13.302;2023-04-25T07:02:00;8.70;99.90
35796;DHT22;21916;52.428;13.302;2023-04-25T07:04:26;8.70;99.90
35796;DHT22;21916;52.428;13.302;2023-04-25T07:06:55;8.70;99.90
35796;DHT22;21916;52.428;13.302;2023-04-25T07:09:28;8.70;99.90
35796;DHT22;21916;52.428;13.302;2023-04-25T07:11:54;8.60;99.90
35796;DHT22;21916;52.428;13.302;2023-04-25T07:14:21;8.40;99.90
35796;DHT22;21916;52.428;13.302;2023-04-25T07:16:46;8.40;99.90
35796;DHT22;21916;52.428;13.302;2023-04-25T07:19:13;8.30;99.90
35796;DHT22;21916;52.428;13.302;2023-04-25T07:21:39;8.20;99.90
35796;DHT22;21916;52.428;13.302;2023-04-25T07:24:06;8.20;99.90
35796;DHT22;21916;52.428;13.302;2023-04-25T07:26:35;8.00;99.90
35796;DHT22;21916;52.428;13.302;2023-04-25T07:29:39;8.00;99.90
35796;DHT22;21916;52.428;13.302;2023-04-25T07:32:05;8.10;99.90
35796;DHT22;21916;52.428;13.302;2023-04-25T07:34:31;8.10;99.90
35796;DHT22;21916;52.428;13.302;2023-04-25T07:36:58;8.10;99.90
35796;DHT22;21916;52.428;13.302;2023-04-25T07:39:28;8.20;99.90
35796;DHT22;21916;52.428;13.302;2023-04-25T07:41:54;8.30;99.90
35796;DHT22;21916;52.428;13.302;2023-04-25T07:44:24;8.30;99.90
35796;DHT22;21916;52.428;13.302;2023-04-25T07:46:50;8.20;99.90
35796;DHT22;21916;52.428;13.302;2023-04-25T07:49:17;8.30;99.90
35796;DHT22;21916;52.428;13.302;2023-04-25T07:51:44;8.40;99.90
35796;DHT22;21916;52.428;13.302;2023-04-25T07:54:14;8.30;99.90
35796;DHT22;21916;52.428;13.302;2023-04-25T07:56:45;8.30;99.90
35796;DHT22;21916;52.428;13.302;2023-04-25T07:59:11;8.30;99.90
35796;DHT22;21916;52.428;13.302;2023-04-25T08:01:38;8.40;99.90
35796;DHT22;21916;52.428;13.302;2023-04-25T08:04:06;8.60;99.90
35796;DHT22;21916;52.428;13.302;2023-04-25T08:06:53;8.70;99.90
35796;DHT22;21916;52.428;13.302;2023-04-25T08:09:24;8.70;99.90
35796;DHT22;21916;52.428;13.302;2023-04-25T08:11:50;8.70;99.90
35796;DHT22;21916;52.428;13.302;2023-04-25T08:14:21;8.60;99.90
35796;DHT22;21916;52.428;13.302;2023-04-25T08:16:48;8.60;99.90
35796;DHT22;21916;52.428;13.302;2023-04-25T08:19:14;8.70;99.90
35796;DHT22;21916;52.428;13.302;2023-04-25T08:21:40;8.80;99.90
35796;DHT22;21916;52.428;13.302;2023-04-25T08:24:10;8.80;99.90
35796;DHT22;21916;52.428;13.302;2023-04-25T08:26:38;9.10;99.90
35796;DHT22;21916;52.428;13.302;2023-04-25T08:29:06;9.20;99.90
35796;DHT22;21916;52.428;13.302;2023-04-25T08:31:32;9.30;99.90
35796;DHT22;21916;52.428;13.302;2023-04-25T08:34:01;9.50;99.90
35796;DHT22;21916;52.428;13.302;2023-04-25T08:36:32;9.50;99.90
35796;DHT22;21916;52.428;13.302;2023-04-25T08:38:59;9.30;99.90
35796;DHT22;21916;52.428;13.302;2023-04-25T08:41:26;9.20;99.90
35796;DHT22;21916;52.428;13.302;2023-04-25T08:43:53;9.20;99.90
35796;DHT22;21916;52.428;13.302;2023-04-25T08:46:23;9.40;99.90
35796;DHT22;21916;52.428;13.302;2023-04-25T08:49:13;9.50;99.90
35796;DHT22;21916;52.428;13.302;2023-04-25T08:51:45;9.50;99.90
35796;DHT22;21916;52.428;13.302;2023-04-25T08:54:21;9.40;99.90
35796;DHT22;21916;52.428;13.302;2023-04-25T08:56:52;9.30;99.90
35796;DHT22;21916;52.428;13.302;2023-04-25T08:59:18;9.40;99.90
35796;DHT22;21916;52.428;13.302;2023-04-25T09:01:45;9.40;99.90
35796;DHT22;21916;52.428;13.302;2023-04-25T09:04:12;9.40;99.90
35796;DHT22;21916;52.428;13.302;2023-04-25T09:06:39;9.60;99.90
35796;DHT22;21916;52.428;13.302;2023-04-25T09:09:06;9.90;99.90
35796;DHT22;21916;52.428;13.302;2023-04-25T09:11:34;10.00;99.90
35796;DHT22;21916;52.428;13.302;2023-04-25T09:14:15;10.00;99.90
35796;DHT22;21916;52.428;13.302;2023-04-25T09:16:58;10.10;99.90
35796;DHT22;21916;52.428;13.302;2023-04-25T09:19:46;10.20;99.90
35796;DHT22;21916;52.428;13.302;2023-04-25T09:22:32;10.50;99.90
35796;DHT22;21916;52.428;13.302;2023-04-25T09:25:02;10.70;99.90
35796;DHT22;21916;52.428;13.302;2023-04-25T09:27:29;10.70;99.90
35796;DHT22;21916;52.428;13.302;2023-04-25T09:30:07;10.90;99.90
35796;DHT22;21916;52.428;13.302;2023-04-25T09:33:07;11.10;99.80
35796;DHT22;21916;52.428;13.302;2023-04-25T09:35:44;11.30;99.90
35796;DHT22;21916;52.428;13.302;2023-04-25T09:38:45;11.50;99.90
35796;DHT22;21916;52.428;13.302;2023-04-25T09:41:25;11.40;99.50
35796;DHT22;21916;52.428;13.302;2023-04-25T09:43:56;11.40;99.60
35796;DHT22;21916;52.428;13.302;2023-04-25T09:46:35;11.30;99.50
35796;DHT22;21916;52.428;13.302;2023-04-25T09:49:10;10.90;99.50
35796;DHT22;21916;52.428;13.302;2023-04-25T09:51:59;10.90;99.90
35796;DHT22;21916;52.428;13.302;2023-04-25T09:54:31;10.70;98.80
35796;DHT22;21916;52.428;13.302;2023-04-25T09:57:17;10.60;98.70
35796;DHT22;21916;52.428;13.302;2023-04-25T09:59:51;10.40;98.80
35796;DHT22;21916;52.428;13.302;2023-04-25T10:02:20;10.40;99.20
35796;DHT22;21916;52.428;13.302;2023-04-25T10:04:50;10.60;99.00
35796;DHT22;21916;52.428;13.302;2023-04-25T10:07:22;10.70;98.90
35796;DHT22;21916;52.428;13.302;2023-04-25T10:09:55;10.60;98.70
35796;DHT22;21916;52.428;13.302;2023-04-25T10:12:25;10.60;99.00
35796;DHT22;21916;52.428;13.302;2023-04-25T10:14:52;10.60;97.90
35796;DHT22;21916;52.428;13.302;2023-04-25T10:17:19;10.80;98.00
35796;DHT22;21916;52.428;13.302;2023-04-25T10:19:47;10.70;97.60
35796;DHT22;21916;52.428;13.302;2023-04-25T10:22:35;10.50;97.30
35796;DHT22;21916;52.428;13.302;2023-04-25T10:25:02;10.40;97.70
35796;DHT22;21916;52.428;13.302;2023-04-25T10:27:31;10.40;97.60
35796;DHT22;21916;52.428;13.302;2023-04-25T10:30:07;10.50;97.40
35796;DHT22;21916;52.428;13.302;2023-04-25T10:32:35;10.80;97.00
35796;DHT22;21916;52.428;13.302;2023-04-25T10:40:26;11.60;96.30
35796;DHT22;21916;52.428;13.302;2023-04-25T10:42:53;11.80;96.00
35796;DHT22;21916;52.428;13.302;2023-04-25T10:45:20;11.50;96.10
35796;DHT22;21916;52.428;13.302;2023-04-25T10:47:46;11.30;96.40
35796;DHT22;21916;52.428;13.302;2023-04-25T10:50:15;11.10;96.50
35796;DHT22;21916;52.428;13.302;2023-04-25T10:52:44;10.80;96.80
35796;DHT22;21916;52.428;13.302;2023-04-25T10:55:10;10.60;97.00
35796;DHT22;21916;52.428;13.302;2023-04-25T10:57:40;10.60;97.00
35796;DHT22;21916;52.428;13.302;2023-04-25T11:00:10;10.80;97.10
35796;DHT22;21916;52.428;13.302;2023-04-25T11:02:40;11.00;96.70
35796;DHT22;21916;52.428;13.302;2023-04-25T11:05:07;11.00;96.90
35796;DHT22;21916;52.428;13.302;2023-04-25T11:07:52;10.90;95.20
35796;DHT22;21916;52.428;13.302;2023-04-25T11:10:20;10.70;95.20
35796;DHT22;21916;52.428;13.302;2023-04-25T11:12:46;10.60;95.60
35796;DHT22;21916;52.428;13.302;2023-04-25T11:15:13;10.40;95.60
35796;DHT22;21916;52.428;13.302;2023-04-25T11:17:39;10.30;95.90
35796;DHT22;21916;52.428;13.302;2023-04-25T11:20:07;10.30;96.30
35796;DHT22;21916;52.428;13.302;2023-04-25T11:22:38;10.40;96.20
35796;DHT22;21916;52.428;13.302;2023-04-25T11:25:07;10.30;96.50
35796;DHT22;21916;52.428;13.302;2023-04-25T11:27:33;10.20;96.50
35796;DHT22;21916;52.428;13.302;2023-04-25T11:30:13;10.10;97.10
35796;DHT22;21916;52.428;13.302;2023-04-25T11:32:41;10.20;97.30
35796;DHT22;21916;52.428;13.302;2023-04-25T11:35:09;10.00;95.50
35796;DHT22;21916;52.428;13.302;2023-04-25T11:37:35;9.70;95.60
35796;DHT22;21916;52.428;13.302;2023-04-25T11:40:03;9.60;95.80
35796;DHT22;21916;52.428;13.302;2023-04-25T11:42:30;9.60;95.60
35796;DHT22;21916;52.428;13.302;2023-04-25T11:44:56;9.70;95.40
35796;DHT22;21916;52.428;13.302;2023-04-25T11:47:28;9.90;95.00
35796;DHT22;21916;52.428;13.302;2023-04-25T11:49:54;9.80;94.10
35796;DHT22;21916;52.428;13.302;2023-04-25T11:52:20;9.90;94.00
35796;DHT22;21916;52.428;13.302;2023-04-25T11:54:46;10.00;93.80
35796;DHT22;21916;52.428;13.302;2023-04-25T11:57:12;10.10;93.80
35796;DHT22;21916;52.428;13.302;2023-04-25T11:59:38;10.10;94.10
35796;DHT22;21916;52.428;13.302;2023-04-25T12:02:05;10.20;94.10
35796;DHT22;21916;52.428;13.302;2023-04-25T12:04:32;10.30;94.50
35796;DHT22;21916;52.428;13.302;2023-04-25T12:06:58;10.30;94.10
35796;DHT22;21916;52.428;13.302;2023-04-25T12:09:31;10.30;94.30
35796;DHT22;21916;52.428;13.302;2023-04-25T12:12:01;10.10;94.70
35796;DHT22;21916;52.428;13.302;2023-04-25T12:14:30;10.20;94.90
35796;DHT22;21916;52.428;13.302;2023-04-25T12:17:00;10.30;95.00
35796;DHT22;21916;52.428;13.302;2023-04-25T12:19:31;10.40;94.20
35796;DHT22;21916;52.428;13.302;2023-04-25T12:22:00;10.30;93.00
35796;DHT22;21916;52.428;13.302;2023-04-25T12:24:27;10.10;92.60
35796;DHT22;21916;52.428;13.302;2023-04-25T12:27:06;10.20;93.10
35796;DHT22;21916;52.428;13.302;2023-04-25T12:29:34;10.40;93.10
35796;DHT22;21916;52.428;13.302;2023-04-25T12:32:00;10.60;92.80
35796;DHT22;21916;52.428;13.302;2023-04-25T12:34:29;10.70;92.90
35796;DHT22;21916;52.428;13.302;2023-04-25T12:36:57;10.80;92.70
35796;DHT22;21916;52.428;13.302;2023-04-25T12:39:24;11.20;92.80
35796;DHT22;21916;52.428;13.302;2023-04-25T12:41:53;11.50;92.50
35796;DHT22;21916;52.428;13.302;2023-04-25T12:44:20;11.50;91.60
35796;DHT22;21916;52.428;13.302;2023-04-25T12:46:47;11.20;91.90
35796;DHT22;21916;52.428;13.302;2023-04-25T12:49:13;10.80;92.80
35796;DHT22;21916;52.428;13.302;2023-04-25T12:51:39;10.60;93.00
35796;DHT22;21916;52.428;13.302;2023-04-25T12:54:07;10.40;93.40
35796;DHT22;21916;52.428;13.302;2023-04-25T12:56:35;10.40;93.90
35796;DHT22;21916;52.428;13.302;2023-04-25T12:59:01;10.30;94.10
35796;DHT22;21916;52.428;13.302;2023-04-25T13:01:29;10.20;93.90
35796;DHT22;21916;52.428;13.302;2023-04-25T13:03:55;10.10;93.80
35796;DHT22;21916;52.428;13.302;2023-04-25T13:06:22;10.20;93.70
35796;DHT22;21916;52.428;13.302;2023-04-25T13:08:47;10.10;94.10
35796;DHT22;21916;52.428;13.302;2023-04-25T13:11:14;10.10;94.30
35796;DHT22;21916;52.428;13.302;2023-04-25T13:13:43;10.20;94.40
35796;DHT22;21916;52.428;13.302;2023-04-25T13:16:10;10.30;94.20
35796;DHT22;21916;52.428;13.302;2023-04-25T13:18:36;10.60;94.10
35796;DHT22;21916;52.428;13.302;2023-04-25T13:21:02;11.20;93.90
35796;DHT22;21916;52.428;13.302;2023-04-25T13:23:29;12.20;92.70
35796;DHT22;21916;52.428;13.302;2023-04-25T13:25:55;12.90;90.90
35796;DHT22;21916;52.428;13.302;2023-04-25T13:28:24;13.10;90.40
35796;DHT22;21916;52.428;13.302;2023-04-25T13:30:50;12.80;90.20
35796;DHT22;21916;52.428;13.302;2023-04-25T13:33:17;12.90;90.60
35796;DHT22;21916;52.428;13.302;2023-04-25T13:35:43;12.60;90.20
35796;DHT22;21916;52.428;13.302;2023-04-25T13:38:13;11.90;90.90
35796;DHT22;21916;52.428;13.302;2023-04-25T13:40:39;11.50;91.00
35796;DHT22;21916;52.428;13.302;2023-04-25T13:43:05;11.70;91.20
35796;DHT22;21916;52.428;13.302;2023-04-25T13:45:32;11.50;91.30
35796;DHT22;21916;52.428;13.302;2023-04-25T13:47:58;11.20;92.00
35796;DHT22;21916;52.428;13.302;2023-04-25T13:50:24;11.10;92.30
35796;DHT22;21916;52.428;13.302;2023-04-25T13:52:50;10.90;92.80
35796;DHT22;21916;52.428;13.302;2023-04-25T13:55:17;10.70;93.10
35796;DHT22;21916;52.428;13.302;2023-04-25T13:57:42;10.50;92.90
35796;DHT22;21916;52.428;13.302;2023-04-25T14:00:09;10.40;93.50
35796;DHT22;21916;52.428;13.302;2023-04-25T14:02:36;10.40;93.70
35796;DHT22;21916;52.428;13.302;2023-04-25T14:05:03;10.20;93.90
35796;DHT22;21916;52.428;13.302;2023-04-25T14:07:29;10.10;94.60
35796;DHT22;21916;52.428;13.302;2023-04-25T14:09:56;10.10;94.40
35796;DHT22;21916;52.428;13.302;2023-04-25T14:12:23;10.00;94.70
35796;DHT22;21916;52.428;13.302;2023-04-25T14:14:49;9.80;95.20
35796;DHT22;21916;52.428;13.302;2023-04-25T14:17:15;9.70;95.90
35796;DHT22;21916;52.428;13.302;2023-04-25T14:19:41;9.50;95.70
35796;DHT22;21916;52.428;13.302;2023-04-25T14:22:11;9.50;95.70
35796;DHT22;21916;52.428;13.302;2023-04-25T14:24:37;9.40;95.00
35796;DHT22;21916;52.428;13.302;2023-04-25T14:27:04;9.40;95.70
35796;DHT22;21916;52.428;13.302;2023-04-25T14:29:31;9.30;95.90
35796;DHT22;21916;52.428;13.302;2023-04-25T14:31:57;9.40;96.40
35796;DHT22;21916;52.428;13.302;2023-04-25T14:34:24;9.40;96.70
35796;DHT22;21916;52.428;13.302;2023-04-25T14:36:51;9.40;96.40
35796;DHT22;21916;52.428;13.302;2023-04-25T14:39:18;9.50;96.50
35796;DHT22;21916;52.428;13.302;2023-04-25T14:41:44;9.40;96.40
35796;DHT22;21916;52.428;13.302;2023-04-25T14:44:10;9.40;96.60
35796;DHT22;21916;52.428;13.302;2023-04-25T14:46:36;9.50;96.80
35796;DHT22;21916;52.428;13.302;2023-04-25T14:49:03;9.60;96.90
35796;DHT22;21916;52.428;13.302;2023-04-25T14:51:29;9.90;96.50
35796;DHT22;21916;52.428;13.302;2023-04-25T14:53:56;10.20;96.10
35796;DHT22;21916;52.428;13.302;2023-04-25T14:56:22;10.50;95.70
35796;DHT22;21916;52.428;13.302;2023-04-25T14:58:48;10.70;95.30
35796;DHT22;21916;52.428;13.302;2023-04-25T15:01:14;10.50;95.10
35796;DHT22;21916;52.428;13.302;2023-04-25T15:03:40;10.20;95.70
35796;DHT22;21916;52.428;13.302;2023-04-25T15:06:06;10.20;96.10
35796;DHT22;21916;52.428;13.302;2023-04-25T15:08:33;10.20;96.30
35796;DHT22;21916;52.428;13.302;2023-04-25T15:11:00;10.10;96.50
35796;DHT22;21916;52.428;13.302;2023-04-25T15:13:26;10.00;96.50
35796;DHT22;21916;52.428;13.302;2023-04-25T15:15:52;10.10;96.60
35796;DHT22;21916;52.428;13.302;2023-04-25T15:18:21;10.10;96.80
35796;DHT22;21916;52.428;13.302;2023-04-25T15:20:53;10.10;96.80
35796;DHT22;21916;52.428;13.302;2023-04-25T15:23:20;10.00;96.80
35796;DHT22;21916;52.428;13.302;2023-04-25T15:25:49;9.90;97.00
35796;DHT22;21916;52.428;13.302;2023-04-25T15:28:15;9.90;97.10
35796;DHT22;21916;52.428;13.302;2023-04-25T15:30:42;9.90;97.00
35796;DHT22;21916;52.428;13.302;2023-04-25T15:33:08;9.90;97.10
35796;DHT22;21916;52.428;13.302;2023-04-25T15:35:34;10.00;96.50
35796;DHT22;21916;52.428;13.302;2023-04-25T15:38:00;10.70;95.40
35796;DHT22;21916;52.428;13.302;2023-04-25T15:40:26;11.00;95.30
35796;DHT22;21916;52.428;13.302;2023-04-25T15:42:53;11.00;95.00
35796;DHT22;21916;52.428;13.302;2023-04-25T15:45:22;10.80;95.10